sensor_id;sensor_type;location;lat;lon;timestamp;temperature;humidity
23520;DHT22;11936;50.820;4.336;2023-07-24T02:02:53;19.00;99.90
23520;DHT22;11936;50.820;4.336;2023-07-24T02:05:20;19.10;99.90
23520;DHT22;11936;50.820;4.336;2023-07-24T02:07:45;19.20;99.90
23520;DHT22;11936;50.820;4.336;2023-07-24T02:10:11;19.30;99.90
23520;DHT22;11936;50.820;4.336;2023-07-24T02:12:36;19.30;99.90
23520;DHT22;11936;50.820;4.336;2023-07-24T02:15:02;19.20;99.90
23520;DHT22;11936;50.820;4.336;2023-07-24T02:17:28;19.10;99.90
23520;DHT22;11936;50.820;4.336;2023-07-24T02:19:53;19.20;99.90
23520;DHT22;11936;50.820;4.336;2023-07-24T02:22:19;19.20;99.90
23520;DHT22;11936;50.820;4.336;2023-07-24T02:24:45;19.20;99.90
23520;DHT22;11936;50.820;4.336;2023-07-24T02:27:23;19.20;99.90
23520;DHT22;11936;50.820;4.336;2023-07-24T02:29:49;19.30;99.90
23520;DHT22;11936;50.820;4.336;2023-07-24T02:32:15;19.30;99.90
23520;DHT22;11936;50.820;4.336;2023-07-24T02:34:40;19.40;99.90
23520;DHT22;11936;50.820;4.336;2023-07-24T02:37:06;19.40;99.90
23520;DHT22;11936;50.820;4.336;2023-07-24T02:39:31;19.50;99.90
23520;DHT22;11936;50.820;4.336;2023-07-24T02:41:57;19.50;99.90
23520;DHT22;11936;50.820;4.336;2023-07-24T02:44:25;19.40;99.90
23520;DHT22;11936;50.820;4.336;2023-07-24T02:46:51;19.60;99.90
23520;DHT22;11936;50.820;4.336;2023-07-24T02:49:16;19.30;99.90
23520;DHT22;11936;50.820;4.336;2023-07-24T02:51:42;19.30;99.90
23520;DHT22;11936;50.820;4.336;2023-07-24T02:54:07;19.10;99.90
23520;DHT22;11936;50.820;4.336;2023-07-24T02:56:33;19.10;99.90
23520;DHT22;11936;50.820;4.336;2023-07-24T02:58:58;19.10;99.90
23520;DHT22;11936;50.820;4.336;2023-07-24T03:01:24;18.90;99.90
23520;DHT22;11936;50.820;4.336;2023-07-24T03:03:49;18.90;99.90
23520;DHT22;11936;50.820;4.336;2023-07-24T03:06:15;18.90;99.90
23520;DHT22;11936;50.820;4.336;2023-07-24T03:08:41;18.90;99.90
23520;DHT22;11936;50.820;4.336;2023-07-24T03:11:07;18.80;99.90
23520;DHT22;11936;50.820;4.336;2023-07-24T03:13:33;18.60;99.90
23520;DHT22;11936;50.820;4.336;2023-07-24T03:15:59;18.60;99.90
23520;DHT22;11936;50.820;4.336;2023-07-24T03:18:25;18.60;99.90
23520;DHT22;11936;50.820;4.336;2023-07-24T03:20:50;18.50;99.90
23520;DHT22;11936;50.820;4.336;2023-07-24T03:23:16;18.40;99.90
23520;DHT22;11936;50.820;4.336;2023-07-24T03:25:42;18.40;99.90
23520;DHT22;11936;50.820;4.336;2023-07-24T03:28:07;18.40;99.90
23520;DHT22;11936;50.820;4.336;2023-07-24T03:30:33;18.30;99.90
23520;DHT22;11936;50.820;4.336;2023-07-24T03:32:59;18.30;99.90
23520;DHT22;11936;50.820;4.336;2023-07-24T03:35:25;18.30;99.90
23520;DHT22;11936;50.820;4.336;2023-07-24T03:37:50;18.40;99.90
23520;DHT22;11936;50.820;4.336;2023-07-24T03:40:16;18.40;99.90
23520;DHT22;11936;50.820;4.336;2023-07-24T03:42:42;18.50;99.90
23520;DHT22;11936;50.820;4.336;2023-07-24T03:45:08;18.50;99.90
23520;DHT22;11936;50.820;4.336;2023-07-24T03:47:33;18.40;99.90
23520;DHT22;11936;50.820;4.336;2023-07-24T03:49:59;18.50;99.90
23520;DHT22;11936;50.820;4.336;2023-07-24T03:52:25;18.40;99.90
23520;DHT22;11936;50.820;4.336;2023-07-24T03:54:51;18.40;99.90
23520;DHT22;11936;50.820;4.336;2023-07-24T03:57:17;18.40;99.90
23520;DHT22;11936;50.820;4.336;2023-07-24T03:59:43;18.40;99.90
23520;DHT22;11936;50.820;4.336;2023-07-24T04:02:08;18.40;99.90
23520;DHT22;11936;50.820;4.336;2023-07-24T04:04:34;18.40;99.90
23520;DHT22;11936;50.820;4.336;2023-07-24T04:06:59;18.40;99.90
23520;DHT22;11936;50.820;4.336;2023-07-24T04:09:25;18.30;99.90
23520;DHT22;11936;50.820;4.336;2023-07-24T04:11:51;18.30;99.90
23520;DHT22;11936;50.820;4.336;2023-07-24T04:14:16;18.20;99.90
23520;DHT22;11936;50.820;4.336;2023-07-24T04:16:42;18.20;99.90
23520;DHT22;11936;50.820;4.336;2023-07-24T04:19:07;18.20;99.90
23520;DHT22;11936;50.820;4.336;2023-07-24T04:21:34;18.20;99.90
23520;DHT22;11936;50.820;4.336;2023-07-24T04:23:59;18.30;99.90
23520;DHT22;11936;50.820;4.336;2023-07-24T04:26:25;18.20;99.90
23520;DHT22;11936;50.820;4.336;2023-07-24T04:28:50;18.30;99.90
23520;DHT22;11936;50.820;4.336;2023-07-24T04:31:16;18.50;99.90
23520;DHT22;11936;50.820;4.336;2023-07-24T04:33:41;18.50;99.90
23520;DHT22;11936;50.820;4.336;2023-07-24T04:36:07;18.40;99.90
23520;DHT22;11936;50.820;4.336;2023-07-24T04:38:33;18.50;99.90
23520;DHT22;11936;50.820;4.336;2023-07-24T04:41:00;18.50;99.90
23520;DHT22;11936;50.820;4.336;2023-07-24T04:43:27;18.40;99.90
23520;DHT22;11936;50.820;4.336;2023-07-24T04:45:52;18.40;99.90
23520;DHT22;11936;50.820;4.336;2023-07-24T04:48:18;18.50;99.90
23520;DHT22;11936;50.820;4.336;2023-07-24T04:50:44;18.60;99.90
23520;DHT22;11936;50.820;4.336;2023-07-24T04:53:09;18.70;99.90
23520;DHT22;11936;50.820;4.336;2023-07-24T04:55:35;18.70;99.90
23520;DHT22;11936;50.820;4.336;2023-07-24T04:58:00;18.70;99.90
23520;DHT22;11936;50.820;4.336;2023-07-24T05:00:26;18.80;99.90
23520;DHT22;11936;50.820;4.336;2023-07-24T05:02:52;18.70;99.90
23520;DHT22;11936;50.820;4.336;2023-07-24T05:05:17;18.60;99.90
23520;DHT22;11936;50.820;4.336;2023-07-24T05:07:43;18.60;99.90
23520;DHT22;11936;50.820;4.336;2023-07-24T05:10:08;18.60;99.90
23520;DHT22;11936;50.820;4.336;2023-07-24T05:12:34;18.60;99.90
23520;DHT22;11936;50.820;4.336;2023-07-24T05:15:00;18.80;99.90
23520;DHT22;11936;50.820;4.336;2023-07-24T05:17:25;18.70;99.90
23520;DHT22;11936;50.820;4.336;2023-07-24T05:19:51;18.60;99.90
23520;DHT22;11936;50.820;4.336;2023-07-24T05:22:16;18.70;99.90
23520;DHT22;11936;50.820;4.336;2023-07-24T05:24:42;18.60;99.90
23520;DHT22;11936;50.820;4.336;2023-07-24T05:27:07;18.60;99.90
23520;DHT22;11936;50.820;4.336;2023-07-24T05:29:33;18.60;99.90
23520;DHT22;11936;50.820;4.336;2023-07-24T05:31:59;18.70;99.90
23520;DHT22;11936;50.820;4.336;2023-07-24T05:34:25;18.80;99.90
23520;DHT22;11936;50.820;4.336;2023-07-24T05:36:51;18.70;99.90
23520;DHT22;11936;50.820;4.336;2023-07-24T05:39:16;18.80;99.90
23520;DHT22;11936;50.820;4.336;2023-07-24T05:41:42;18.60;99.90
23520;DHT22;11936;50.820;4.336;2023-07-24T05:44:07;18.80;99.90
23520;DHT22;11936;50.820;4.336;2023-07-24T05:46:33;18.80;99.90
23520;DHT22;11936;50.820;4.336;2023-07-24T05:48:59;18.90;99.90
23520;DHT22;11936;50.820;4.336;2023-07-24T05:51:26;18.80;99.90
23520;DHT22;11936;50.820;4.336;2023-07-24T05:53:52;18.80;99.90
23520;DHT22;11936;50.820;4.336;2023-07-24T05:56:18;18.90;99.90
23520;DHT22;11936;50.820;4.336;2023-07-24T05:58:47;18.90;99.90
23520;DHT22;11936;50.820;4.336;2023-07-24T06:01:12;18.90;99.90
23520;DHT22;11936;50.820;4.336;2023-07-24T06:03:38;19.00;99.90
23520;DHT22;11936;50.820;4.336;2023-07-24T06:06:04;18.90;99.90
23520;DHT22;11936;50.820;4.336;2023-07-24T06:08:30;19.00;99.90
23520;DHT22;11936;50.820;4.336;2023-07-24T06:10:55;18.90;99.90
23520;DHT22;11936;50.820;4.336;2023-07-24T06:13:24;18.80;99.90
23520;DHT22;11936;50.820;4.336;2023-07-24T06:15:51;18.80;99.90
23520;DHT22;11936;50.820;4.336;2023-07-24T06:18:17;18.90;99.90
23520;DHT22;11936;50.820;4.336;2023-07-24T06:20:43;18.90;99.90
23520;DHT22;11936;50.820;4.336;2023-07-24T06:23:08;19.00;99.90
23520;DHT22;11936;50.820;4.336;2023-07-24T06:25:34;19.00;99.90
23520;DHT22;11936;50.820;4.336;2023-07-24T06:28:00;19.10;99.90
23520;DHT22;11936;50.820;4.336;2023-07-24T06:30:26;19.20;99.90
23520;DHT22;11936;50.820;4.336;2023-07-24T06:32:52;19.10;99.90
23520;DHT22;11936;50.820;4.336;2023-07-24T06:35:17;19.10;99.90
23520;DHT22;11936;50.820;4.336;2023-07-24T06:37:43;19.10;99.90
23520;DHT22;11936;50.820;4.336;2023-07-24T06:40:09;19.00;99.90
23520;DHT22;11936;50.820;4.336;2023-07-24T06:42:34;19.20;99.90
23520;DHT22;11936;50.820;4.336;2023-07-24T06:45:00;19.20;99.90
23520;DHT22;11936;50.820;4.336;2023-07-24T06:47:26;19.40;99.90
23520;DHT22;11936;50.820;4.336;2023-07-24T06:49:52;19.40;99.90
23520;DHT22;11936;50.820;4.336;2023-07-24T06:52:18;19.30;99.90
23520;DHT22;11936;50.820;4.336;2023-07-24T06:54:43;19.30;99.90
23520;DHT22;11936;50.820;4.336;2023-07-24T06:57:09;19.30;99.90
23520;DHT22;11936;50.820;4.336;2023-07-24T06:59:34;19.20;99.90
23520;DHT22;11936;50.820;4.336;2023-07-24T07:02:00;19.30;99.90
23520;DHT22;11936;50.820;4.336;2023-07-24T07:04:25;19.20;99.90
23520;DHT22;11936;50.820;4.336;2023-07-24T07:06:51;19.10;99.90
23520;DHT22;11936;50.820;4.336;2023-07-24T07:09:16;19.00;99.90
23520;DHT22;11936;50.820;4.336;2023-07-24T07:11:42;19.10;99.90
23520;DHT22;11936;50.820;4.336;2023-07-24T07:14:09;19.20;99.90
23520;DHT22;11936;50.820;4.336;2023-07-24T07:16:34;19.20;99.90
23520;DHT22;11936;50.820;4.336;2023-07-24T07:19:00;19.40;99.90
23520;DHT22;11936;50.820;4.336;2023-07-24T07:21:26;19.20;99.90
23520;DHT22;11936;50.820;4.336;2023-07-24T07:23:51;19.20;99.90
23520;DHT22;11936;50.820;4.336;2023-07-24T07:26:17;19.20;99.90
23520;DHT22;11936;50.820;4.336;2023-07-24T07:28:42;19.20;99.90
23520;DHT22;11936;50.820;4.336;2023-07-24T07:31:10;19.20;99.90
23520;DHT22;11936;50.820;4.336;2023-07-24T07:33:36;19.30;99.90
23520;DHT22;11936;50.820;4.336;2023-07-24T07:36:01;19.40;99.90
23520;DHT22;11936;50.820;4.336;2023-07-24T07:38:27;19.40;99.90
23520;DHT22;11936;50.820;4.336;2023-07-24T07:40:53;19.30;99.90
23520;DHT22;11936;50.820;4.336;2023-07-24T07:43:19;19.40;99.90
23520;DHT22;11936;50.820;4.336;2023-07-24T07:45:44;19.30;99.90
23520;DHT22;11936;50.820;4.336;2023-07-24T07:48:10;19.50;99.90
23520;DHT22;11936;50.820;4.336;2023-07-24T07:50:35;19.50;99.90
23520;DHT22;11936;50.820;4.336;2023-07-24T07:53:01;19.40;99.90
23520;DHT22;11936;50.820;4.336;2023-07-24T07:55:26;19.40;99.90
23520;DHT22;11936;50.820;4.336;2023-07-24T07:57:52;19.40;99.90
23520;DHT22;11936;50.820;4.336;2023-07-24T08:00:20;19.60;99.90
23520;DHT22;11936;50.820;4.336;2023-07-24T08:02:46;19.70;99.90
23520;DHT22;11936;50.820;4.336;2023-07-24T08:05:11;19.90;99.90
23520;DHT22;11936;50.820;4.336;2023-07-24T08:07:37;20.00;99.90
23520;DHT22;11936;50.820;4.336;2023-07-24T08:10:03;20.10;99.90
23520;DHT22;11936;50.820;4.336;2023-07-24T08:12:29;20.00;99.90
23520;DHT22;11936;50.820;4.336;2023-07-24T08:14:56;19.90;99.90
23520;DHT22;11936;50.820;4.336;2023-07-24T08:17:21;19.90;99.90
23520;DHT22;11936;50.820;4.336;2023-07-24T08:19:47;19.50;99.90
23520;DHT22;11936;50.820;4.336;2023-07-24T08:22:13;19.30;99.90
23520;DHT22;11936;50.820;4.336;2023-07-24T08:24:38;19.30;99.90
23520;DHT22;11936;50.820;4.336;2023-07-24T08:27:04;19.30;99.90
23520;DHT22;11936;50.820;4.336;2023-07-24T08:29:30;19.20;99.90
23520;DHT22;11936;50.820;4.336;2023-07-24T08:31:55;19.20;99.90
23520;DHT22;11936;50.820;4.336;2023-07-24T08:34:21;19.30;99.90
23520;DHT22;11936;50.820;4.336;2023-07-24T08:36:47;19.40;99.90
23520;DHT22;11936;50.820;4.336;2023-07-24T08:39:12;19.50;99.90
23520;DHT22;11936;50.820;4.336;2023-07-24T08:41:38;19.60;99.90
23520;DHT22;11936;50.820;4.336;2023-07-24T08:44:10;19.60;99.90
23520;DHT22;11936;50.820;4.336;2023-07-24T08:46:37;19.60;99.90
23520;DHT22;11936;50.820;4.336;2023-07-24T08:49:04;19.50;99.90
23520;DHT22;11936;50.820;4.336;2023-07-24T08:51:30;19.40;99.90
23520;DHT22;11936;50.820;4.336;2023-07-24T08:53:57;19.30;99.90
23520;DHT22;11936;50.820;4.336;2023-07-24T08:56:23;19.40;99.90
23520;DHT22;11936;50.820;4.336;2023-07-24T08:58:49;19.50;99.90
23520;DHT22;11936;50.820;4.336;2023-07-24T09:01:14;19.50;99.90
23520;DHT22;11936;50.820;4.336;2023-07-24T09:03:40;19.50;99.90
23520;DHT22;11936;50.820;4.336;2023-07-24T09:06:06;19.50;99.90
23520;DHT22;11936;50.820;4.336;2023-07-24T09:08:35;19.20;99.90
23520;DHT22;11936;50.820;4.336;2023-07-24T09:11:02;19.20;99.90
23520;DHT22;11936;50.820;4.336;2023-07-24T09:13:29;19.20;99.90
23520;DHT22;11936;50.820;4.336;2023-07-24T09:15:54;19.30;99.90
23520;DHT22;11936;50.820;4.336;2023-07-24T09:18:21;19.40;99.90
23520;DHT22;11936;50.820;4.336;2023-07-24T09:20:47;19.40;99.90
23520;DHT22;11936;50.820;4.336;2023-07-24T09:23:14;19.30;99.90
23520;DHT22;11936;50.820;4.336;2023-07-24T09:25:41;19.30;99.90
23520;DHT22;11936;50.820;4.336;2023-07-24T09:28:15;19.20;99.90
23520;DHT22;11936;50.820;4.336;2023-07-24T09:30:50;19.20;99.90
23520;DHT22;11936;50.820;4.336;2023-07-24T09:33:16;19.30;99.90
23520;DHT22;11936;50.820;4.336;2023-07-24T09:35:42;19.50;99.90
23520;DHT22;11936;50.820;4.336;2023-07-24T09:38:09;19.50;99.90
23520;DHT22;11936;50.820;4.336;2023-07-24T09:40:45;19.30;99.90
23520;DHT22;11936;50.820;4.336;2023-07-24T09:45:44;19.50;99.90
23520;DHT22;11936;50.820;4.336;2023-07-24T09:48:13;19.50;99.90
23520;DHT22;11936;50.820;4.336;2023-07-24T09:50:41;19.50;99.90
23520;DHT22;11936;50.820;4.336;2023-07-24T09:53:12;19.60;99.90
23520;DHT22;11936;50.820;4.336;2023-07-24T09:56:05;19.50;99.90
23520;DHT22;11936;50.820;4.336;2023-07-24T09:58:40;19.50;99.90
23520;DHT22;11936;50.820;4.336;2023-07-24T10:01:10;19.50;99.90
23520;DHT22;11936;50.820;4.336;2023-07-24T10:03:40;19.50;99.90
23520;DHT22;11936;50.820;4.336;2023-07-24T10:06:08;19.60;99.90
23520;DHT22;11936;50.820;4.336;2023-07-24T10:08:38;19.40;99.90
23520;DHT22;11936;50.820;4.336;2023-07-24T10:11:04;19.60;99.90
23520;DHT22;11936;50.820;4.336;2023-07-24T10:13:30;19.80;99.90
23520;DHT22;11936;50.820;4.336;2023-07-24T10:15:56;20.00;99.90
23520;DHT22;11936;50.820;4.336;2023-07-24T10:18:27;20.20;99.90
23520;DHT22;11936;50.820;4.336;2023-07-24T10:21:07;20.40;99.90
23520;DHT22;11936;50.820;4.336;2023-07-24T10:23:42;20.20;99.90
23520;DHT22;11936;50.820;4.336;2023-07-24T10:26:08;20.10;99.90
23520;DHT22;11936;50.820;4.336;2023-07-24T10:28:36;20.10;99.90
23520;DHT22;11936;50.820;4.336;2023-07-24T10:31:18;20.10;99.90
23520;DHT22;11936;50.820;4.336;2023-07-24T10:33:46;20.00;99.90
23520;DHT22;11936;50.820;4.336;2023-07-24T10:36:19;20.00;99.90
23520;DHT22;11936;50.820;4.336;2023-07-24T10:38:46;20.20;99.90
23520;DHT22;11936;50.820;4.336;2023-07-24T10:41:13;20.40;99.90
23520;DHT22;11936;50.820;4.336;2023-07-24T10:43:46;20.40;99.90
23520;DHT22;11936;50.820;4.336;2023-07-24T10:46:13;20.20;99.90
23520;DHT22;11936;50.820;4.336;2023-07-24T10:48:49;20.20;99.90
23520;DHT22;11936;50.820;4.336;2023-07-24T10:51:15;20.40;99.90
23520;DHT22;11936;50.820;4.336;2023-07-24T10:53:58;20.50;99.90
23520;DHT22;11936;50.820;4.336;2023-07-24T10:56:24;20.40;99.90
23520;DHT22;11936;50.820;4.336;2023-07-24T10:58:49;20.70;99.90
23520;DHT22;11936;50.820;4.336;2023-07-24T11:01:17;20.70;99.90
23520;DHT22;11936;50.820;4.336;2023-07-24T11:03:44;20.70;99.90
23520;DHT22;11936;50.820;4.336;2023-07-24T11:06:14;20.70;99.90
23520;DHT22;11936;50.820;4.336;2023-07-24T11:08:40;20.90;99.90
23520;DHT22;11936;50.820;4.336;2023-07-24T11:11:06;20.80;99.90
23520;DHT22;11936;50.820;4.336;2023-07-24T11:13:32;20.90;99.90
23520;DHT22;11936;50.820;4.336;2023-07-24T11:16:04;21.00;99.90
23520;DHT22;11936;50.820;4.336;2023-07-24T11:18:30;20.90;99.90
23520;DHT22;11936;50.820;4.336;2023-07-24T11:20:56;20.60;99.90
23520;DHT22;11936;50.820;4.336;2023-07-24T11:23:23;20.60;99.90
23520;DHT22;11936;50.820;4.336;2023-07-24T11:25:53;20.70;99.90
23520;DHT22;11936;50.820;4.336;2023-07-24T11:28:19;20.40;99.90
23520;DHT22;11936;50.820;4.336;2023-07-24T11:30:44;20.60;99.90
23520;DHT22;11936;50.820;4.336;2023-07-24T11:33:11;20.60;99.90
23520;DHT22;11936;50.820;4.336;2023-07-24T11:35:38;20.80;99.90
23520;DHT22;11936;50.820;4.336;2023-07-24T11:38:06;20.90;99.90
23520;DHT22;11936;50.820;4.336;2023-07-24T11:40:39;21.00;99.90
23520;DHT22;11936;50.820;4.336;2023-07-24T11:43:14;20.90;99.90
23520;DHT22;11936;50.820;4.336;2023-07-24T11:45:44;21.10;99.90
23520;DHT22;11936;50.820;4.336;2023-07-24T11:48:11;21.20;99.90
23520;DHT22;11936;50.820;4.336;2023-07-24T11:50:48;21.10;99.90
23520;DHT22;11936;50.820;4.336;2023-07-24T11:53:27;21.10;99.90
23520;DHT22;11936;50.820;4.336;2023-07-24T11:55:55;21.20;99.90
23520;DHT22;11936;50.820;4.336;2023-07-24T11:58:21;21.20;99.90
23520;DHT22;11936;50.820;4.336;2023-07-24T12:00:48;21.00;99.90
23520;DHT22;11936;50.820;4.336;2023-07-24T12:03:20;21.00;99.90
23520;DHT22;11936;50.820;4.336;2023-07-24T12:05:45;21.00;99.90
23520;DHT22;11936;50.820;4.336;2023-07-24T12:08:11;21.00;99.90
23520;DHT22;11936;50.820;4.336;2023-07-24T12:10:40;21.10;99.90
23520;DHT22;11936;50.820;4.336;2023-07-24T12:13:06;21.20;99.90
23520;DHT22;11936;50.820;4.336;2023-07-24T12:15:31;21.20;99.90
23520;DHT22;11936;50.820;4.336;2023-07-24T12:17:59;21.40;99.90
23520;DHT22;11936;50.820;4.336;2023-07-24T12:20:25;21.40;99.90
23520;DHT22;11936;50.820;4.336;2023-07-24T12:22:50;21.50;99.90
23520;DHT22;11936;50.820;4.336;2023-07-24T12:25:16;21.60;99.90
23520;DHT22;11936;50.820;4.336;2023-07-24T12:27:42;21.70;99.90
23520;DHT22;11936;50.820;4.336;2023-07-24T12:30:08;21.70;99.90
23520;DHT22;11936;50.820;4.336;2023-07-24T12:32:34;21.40;99.90
23520;DHT22;11936;50.820;4.336;2023-07-24T12:35:00;21.30;99.90
23520;DHT22;11936;50.820;4.336;2023-07-24T12:37:25;21.10;99.90
23520;DHT22;11936;50.820;4.336;2023-07-24T12:39:51;21.00;99.90
23520;DHT22;11936;50.820;4.336;2023-07-24T12:42:17;21.10;99.90
23520;DHT22;11936;50.820;4.336;2023-07-24T12:44:43;21.20;99.90
23520;DHT22;11936;50.820;4.336;2023-07-24T12:47:10;21.30;99.90
23520;DHT22;11936;50.820;4.336;2023-07-24T12:49:36;21.30;99.90
23520;DHT22;11936;50.820;4.336;2023-07-24T12:52:02;21.30;99.90
23520;DHT22;11936;50.820;4.336;2023-07-24T12:54:28;21.30;99.90
23520;DHT22;11936;50.820;4.336;2023-07-24T12:56:53;21.50;99.90
23520;DHT22;11936;50.820;4.336;2023-07-24T12:59:19;21.50;99.90
23520;DHT22;11936;50.820;4.336;2023-07-24T13:01:45;21.50;99.90
23520;DHT22;11936;50.820;4.336;2023-07-24T13:04:11;21.50;99.90
23520;DHT22;11936;50.820;4.336;2023-07-24T13:06:37;21.20;99.90
23520;DHT22;11936;50.820;4.336;2023-07-24T13:09:03;21.00;99.90
23520;DHT22;11936;50.820;4.336;2023-07-24T13:11:30;20.90;99.90
23520;DHT22;11936;50.820;4.336;2023-07-24T13:13:56;20.70;99.90
23520;DHT22;11936;50.820;4.336;2023-07-24T13:16:22;21.00;99.90
23520;DHT22;11936;50.820;4.336;2023-07-24T13:18:48;21.00;99.90
23520;DHT22;11936;50.820;4.336;2023-07-24T13:21:13;21.00;99.90
23520;DHT22;11936;50.820;4.336;2023-07-24T13:23:40;20.90;99.90
23520;DHT22;11936;50.820;4.336;2023-07-24T13:26:06;20.80;99.90
23520;DHT22;11936;50.820;4.336;2023-07-24T13:28:33;20.70;99.90
23520;DHT22;11936;50.820;4.336;2023-07-24T13:30:59;20.90;99.90
23520;DHT22;11936;50.820;4.336;2023-07-24T13:33:25;21.20;99.90
23520;DHT22;11936;50.820;4.336;2023-07-24T13:35:50;21.50;99.90
23520;DHT22;11936;50.820;4.336;2023-07-24T13:38:16;21.30;99.90
23520;DHT22;11936;50.820;4.336;2023-07-24T13:40:42;21.30;99.90
23520;DHT22;11936;50.820;4.336;2023-07-24T13:43:08;21.30;99.90
23520;DHT22;11936;50.820;4.336;2023-07-24T13:45:33;21.10;99.90
23520;DHT22;11936;50.820;4.336;2023-07-24T13:47:59;21.30;99.90
23520;DHT22;11936;50.820;4.336;2023-07-24T13:50:25;21.40;99.90
23520;DHT22;11936;50.820;4.336;2023-07-24T13:52:50;21.50;99.90
23520;DHT22;11936;50.820;4.336;2023-07-24T13:55:16;21.60;99.90
23520;DHT22;11936;50.820;4.336;2023-07-24T13:57:42;21.80;99.90
23520;DHT22;11936;50.820;4.336;2023-07-24T14:00:08;21.90;99.90
23520;DHT22;11936;50.820;4.336;2023-07-24T14:02:33;21.70;99.90
23520;DHT22;11936;50.820;4.336;2023-07-24T14:04:59;21.70;99.90
23520;DHT22;11936;50.820;4.336;2023-07-24T14:07:24;22.00;99.90
23520;DHT22;11936;50.820;4.336;2023-07-24T14:09:50;22.00;99.90
23520;DHT22;11936;50.820;4.336;2023-07-24T14:12:15;21.90;99.90
23520;DHT22;11936;50.820;4.336;2023-07-24T14:14:41;22.00;99.90
23520;DHT22;11936;50.820;4.336;2023-07-24T14:17:07;22.00;99.90
23520;DHT22;11936;50.820;4.336;2023-07-24T14:19:32;22.00;99.90
23520;DHT22;11936;50.820;4.336;2023-07-24T14:21:58;22.10;99.90
23520;DHT22;11936;50.820;4.336;2023-07-24T14:24:23;22.10;99.90
23520;DHT22;11936;50.820;4.336;2023-07-24T14:26:49;21.80;99.90
23520;DHT22;11936;50.820;4.336;2023-07-24T14:29:15;21.70;99.90
23520;DHT22;11936;50.820;4.336;2023-07-24T14:31:43;21.70;99.90
23520;DHT22;11936;50.820;4.336;2023-07-24T14:34:09;21.60;99.90
23520;DHT22;11936;50.820;4.336;2023-07-24T14:36:39;21.40;99.90
23520;DHT22;11936;50.820;4.336;2023-07-24T14:39:05;21.50;99.90
23520;DHT22;11936;50.820;4.336;2023-07-24T14:41:30;21.40;99.90
23520;DHT22;11936;50.820;4.336;2023-07-24T14:43:56;21.30;99.90
23520;DHT22;11936;50.820;4.336;2023-07-24T14:46:21;21.50;99.90
23520;DHT22;11936;50.820;4.336;2023-07-24T14:48:47;21.50;99.90
23520;DHT22;11936;50.820;4.336;2023-07-24T14:51:12;21.70;99.90
23520;DHT22;11936;50.820;4.336;2023-07-24T14:53:38;21.60;99.90
23520;DHT22;11936;50.820;4.336;2023-07-24T14:56:04;21.60;99.90
23520;DHT22;11936;50.820;4.336;2023-07-24T14:58:30;21.10;99.90
23520;DHT22;11936;50.820;4.336;2023-07-24T15:00:56;20.70;99.90
23520;DHT22;11936;50.820;4.336;2023-07-24T15:03:22;20.70;99.90
23520;DHT22;11936;50.820;4.336;2023-07-24T15:05:47;20.20;99.90
23520;DHT22;11936;50.820;4.336;2023-07-24T15:08:13;20.00;99.90
23520;DHT22;11936;50.820;4.336;2023-07-24T15:10:39;20.20;99.90
23520;DHT22;11936;50.820;4.336;2023-07-24T15:13:05;19.90;99.90
23520;DHT22;11936;50.820;4.336;2023-07-24T15:15:30;19.60;99.90
23520;DHT22;11936;50.820;4.336;2023-07-24T15:17:59;19.60;99.90
23520;DHT22;11936;50.820;4.336;2023-07-24T15:20:24;19.50;99.90
23520;DHT22;11936;50.820;4.336;2023-07-24T15:22:50;19.40;99.90
23520;DHT22;11936;50.820;4.336;2023-07-24T15:25:18;19.30;99.90
23520;DHT22;11936;50.820;4.336;2023-07-24T15:27:44;19.30;99.90
23520;DHT22;11936;50.820;4.336;2023-07-24T15:30:11;19.10;99.90
23520;DHT22;11936;50.820;4.336;2023-07-24T15:32:37;19.20;99.90
23520;DHT22;11936;50.820;4.336;2023-07-24T15:35:03;19.10;99.90
23520;DHT22;11936;50.820;4.336;2023-07-24T15:37:29;19.30;99.90
23520;DHT22;11936;50.820;4.336;2023-07-24T15:39:55;19.30;99.90
23520;DHT22;11936;50.820;4.336;2023-07-24T15:42:21;19.40;99.90
23520;DHT22;11936;50.820;4.336;2023-07-24T15:44:48;19.50;99.90
23520;DHT22;11936;50.820;4.336;2023-07-24T15:47:15;19.80;99.90
23520;DHT22;11936;50.820;4.336;2023-07-24T15:49:41;19.90;99.90
23520;DHT22;11936;50.820;4.336;2023-07-24T15:52:06;20.10;99.90
23520;DHT22;11936;50.820;4.336;2023-07-24T15:54:32;20.30;99.90
23520;DHT22;11936;50.820;4.336;2023-07-24T15:56:58;20.20;99.90
23520;DHT22;11936;50.820;4.336;2023-07-24T15:59:23;20.20;99.90
23520;DHT22;11936;50.820;4.336;2023-07-24T16:01:51;20.20;99.90
23520;DHT22;11936;50.820;4.336;2023-07-24T16:04:20;20.20;99.90
23520;DHT22;11936;50.820;4.336;2023-07-24T16:06:46;20.20;99.90
23520;DHT22;11936;50.820;4.336;2023-07-24T16:09:12;20.10;99.90
23520;DHT22;11936;50.820;4.336;2023-07-24T16:11:38;19.90;99.90
23520;DHT22;11936;50.820;4.336;2023-07-24T16:14:03;19.80;99.90
23520;DHT22;11936;50.820;4.336;2023-07-24T16:16:29;19.80;99.90
23520;DHT22;11936;50.820;4.336;2023-07-24T16:19:14;19.80;99.90
23520;DHT22;11936;50.820;4.336;2023-07-24T16:21:41;19.90;99.90
23520;DHT22;11936;50.820;4.336;2023-07-24T16:24:08;20.00;99.90
23520;DHT22;11936;50.820;4.336;2023-07-24T16:26:34;20.40;99.90
23520;DHT22;11936;50.820;4.336;2023-07-24T16:29:00;20.60;99.90
23520;DHT22;11936;50.820;4.336;2023-07-24T16:31:27;20.50;99.90
23520;DHT22;11936;50.820;4.336;2023-07-24T16:33:53;20.80;99.90
23520;DHT22;11936;50.820;4.336;2023-07-24T16:36:18;20.90;99.90
23520;DHT22;11936;50.820;4.336;2023-07-24T16:38:44;20.70;99.90
23520;DHT22;11936;50.820;4.336;2023-07-24T16:41:10;20.60;99.90
23520;DHT22;11936;50.820;4.336;2023-07-24T16:43:35;20.50;99.90
23520;DHT22;11936;50.820;4.336;2023-07-24T16:46:01;20.20;99.90
23520;DHT22;11936;50.820;4.336;2023-07-24T16:48:26;20.10;99.90
23520;DHT22;11936;50.820;4.336;2023-07-24T16:50:52;20.30;99.90
23520;DHT22;11936;50.820;4.336;2023-07-24T16:53:17;20.30;99.90
23520;DHT22;11936;50.820;4.336;2023-07-24T16:55:43;19.90;99.90
23520;DHT22;11936;50.820;4.336;2023-07-24T16:58:09;20.30;99.90
23520;DHT22;11936;50.820;4.336;2023-07-24T17:00:34;20.80;99.90
23520;DHT22;11936;50.820;4.336;2023-07-24T17:03:00;21.00;99.90
23520;DHT22;11936;50.820;4.336;2023-07-24T17:05:25;21.00;99.90
23520;DHT22;11936;50.820;4.336;2023-07-24T17:07:51;20.60;99.90
23520;DHT22;11936;50.820;4.336;2023-07-24T17:10:17;20.60;99.90
23520;DHT22;11936;50.820;4.336;2023-07-24T17:12:43;20.70;99.90
23520;DHT22;11936;50.820;4.336;2023-07-24T17:15:10;20.60;99.90
23520;DHT22;11936;50.820;4.336;2023-07-24T17:17:36;20.10;99.90
23520;DHT22;11936;50.820;4.336;2023-07-24T17:20:01;20.10;99.90
23520;DHT22;11936;50.820;4.336;2023-07-24T17:22:27;20.20;99.90
23520;DHT22;11936;50.820;4.336;2023-07-24T17:24:53;20.10;99.90
23520;DHT22;11936;50.820;4.336;2023-07-24T17:27:19;20.00;99.90
23520;DHT22;11936;50.820;4.336;2023-07-24T17:29:44;20.00;99.90